Nippa, Kentucky
Current Conditions -  °F | °C
As of 9:15 AM on Monday 22 Dec 2014 (Local Time) from KSJS Reporting Station
Overcast Overcast  
Wind Chill: 38°   Ceiling: 4700
Heat Index: 41°   Visibility: 10mi
Dew Point: 36°   Wind: 5mph
Humidity: 81%   Direction: 90°E
Pressure: 30.04"   Gusts: NA
Location:  37.7517°N, 82.9074°W
Report Text: KSJS 221415Z AUTO 09004KT 10SM SCT041 OVC047 05/02 A3004 RMK AO2 T00510020
Loading
Personal Weather Stations






























Interactive Weather Map New forecast layout! Learn more

10-Day Weather Forecast

Advertisements
Track Severe Weather on mobile